Time;durP1;ratioP1;P1;durP2;ratioP2;P2;SDS_P1;SDS_P2;PMS_P1;PMS_P2;Temp;Humidity;BMP_temperature;BMP_pressure;BME280_temperature;BME280_humidity;BME280_pressure;Samples;Min_cycle;Max_cycle;Signal;HPM_P1;HPM_P2
2021/11/05 00:02:05;;;;;;;1.40;0.70;;;22.70;39.60;;;;;;5072062;28;20380;-68
2021/11/05 00:04:30;;;;;;;1.40;0.73;;;22.70;39.60;;;;;;5071395;28;20901;-63
2021/11/05 00:06:59;;;;;;;1.50;0.80;;;22.70;39.60;;;;;;5071972;28;20832;-63
2021/11/05 00:09:25;;;;;;;1.08;0.55;;;22.70;39.50;;;;;;5071714;28;20392;-63
2021/11/05 00:11:50;;;;;;;1.47;0.70;;;22.60;39.60;;;;;;5071826;28;20866;-63
2021/11/05 00:14:16;;;;;;;1.50;0.80;;;22.60;39.50;;;;;;5071770;28;20406;-67
2021/11/05 00:16:42;;;;;;;1.30;0.70;;;22.60;39.50;;;;;;5071251;28;20745;-75
2021/11/05 00:19:08;;;;;;;1.20;0.75;;;22.60;39.40;;;;;;5053884;28;20494;-70
2021/11/05 00:21:34;;;;;;;1.20;0.60;;;22.60;39.40;;;;;;5071445;28;20824;-70
2021/11/05 00:24:00;;;;;;;1.50;0.75;;;22.60;39.50;;;;;;5071427;28;20395;-74
2021/11/05 00:26:25;;;;;;;1.30;0.70;;;22.60;39.40;;;;;;5070901;28;20434;-63
2021/11/05 00:28:51;;;;;;;1.98;1.00;;;22.60;39.50;;;;;;5071183;28;20750;-75
2021/11/05 00:31:16;;;;;;;1.73;0.90;;;22.60;39.40;;;;;;5077614;28;20415;-75
2021/11/05 00:33:42;;;;;;;1.40;0.90;;;22.60;39.50;;;;;;5076823;28;20752;-73
2021/11/05 00:36:13;;;;;;;1.80;0.80;;;22.60;39.40;;;;;;5082021;28;20379;-74
2021/11/05 00:38:41;;;;;;;2.00;0.93;;;22.60;39.40;;;;;;5077062;28;20477;-74
2021/11/05 00:41:06;;;;;;;1.67;1.00;;;22.60;39.30;;;;;;5048569;28;20447;-64
2021/11/05 00:43:32;;;;;;;3.17;1.00;;;22.60;39.40;;;;;;5080016;28;20471;-75
2021/11/05 00:45:58;;;;;;;1.80;0.90;;;22.60;39.30;;;;;;5079046;28;20379;-63
2021/11/05 00:48:24;;;;;;;2.00;1.00;;;22.60;39.40;;;;;;5071155;28;20924;-71
2021/11/05 00:50:49;;;;;;;1.65;0.90;;;22.60;39.40;;;;;;5075248;28;20892;-63
2021/11/05 00:53:15;;;;;;;1.70;1.00;;;22.50;39.40;;;;;;5071430;28;20427;-63
2021/11/05 00:55:41;;;;;;;1.80;1.10;;;22.50;39.30;;;;;;5052753;28;20889;-63
2021/11/05 00:58:07;;;;;;;2.50;0.82;;;22.50;39.40;;;;;;5071411;28;20931;-69
2021/11/05 01:00:33;;;;;;;2.05;0.70;;;22.50;39.30;;;;;;5053408;28;20383;-64
2021/11/05 01:02:59;;;;;;;2.17;0.80;;;22.50;39.00;;;;;;5071320;28;20391;-73
2021/11/05 01:05:25;;;;;;;2.80;0.80;;;22.60;39.30;;;;;;5071536;28;20388;-64
2021/11/05 01:07:51;;;;;;;3.05;0.98;;;22.60;40.00;;;;;;5071176;28;20384;-77
2021/11/05 01:10:17;;;;;;;3.85;0.90;;;22.60;39.50;;;;;;5071155;28;20380;-71
2021/11/05 01:12:43;;;;;;;2.15;0.90;;;22.60;39.40;;;;;;5070745;28;20457;-76
2021/11/05 01:15:11;;;;;;;3.40;0.80;;;22.60;39.40;;;;;;5071424;28;20475;-76
2021/11/05 01:17:38;;;;;;;2.13;0.90;;;22.60;39.40;;;;;;5071158;28;20765;-76
2021/11/05 01:20:08;;;;;;;4.10;0.88;;;22.60;39.40;;;;;;5071477;28;20403;-76
2021/11/05 01:22:33;;;;;;;2.25;0.90;;;22.60;39.40;;;;;;5070397;28;20731;-75
2021/11/05 01:24:59;;;;;;;2.30;0.90;;;22.60;39.30;;;;;;5071010;28;20445;-66
2021/11/05 01:27:24;;;;;;;1.80;0.80;;;22.60;39.40;;;;;;5070914;28;20847;-76
2021/11/05 01:29:56;;;;;;;2.58;0.90;;;22.60;39.30;;;;;;5052989;28;20400;-76
2021/11/05 01:32:22;;;;;;;1.30;0.60;;;22.60;39.30;;;;;;5070730;28;20384;-72
2021/11/05 01:34:49;;;;;;;2.70;0.98;;;22.60;39.20;;;;;;5070728;28;20916;-74
2021/11/05 01:37:16;;;;;;;2.20;0.80;;;22.60;39.20;;;;;;5075874;28;20885;-75
2021/11/05 01:39:42;;;;;;;1.85;0.80;;;22.60;39.30;;;;;;5079309;28;20396;-70
2021/11/05 01:42:08;;;;;;;1.60;0.70;;;22.60;39.30;;;;;;5080048;28;20401;-73
2021/11/05 01:44:34;;;;;;;2.28;0.70;;;22.50;39.20;;;;;;5078386;28;20403;-70
2021/11/05 01:47:01;;;;;;;1.45;0.70;;;22.60;39.30;;;;;;5077945;28;20391;-68
2021/11/05 01:49:27;;;;;;;2.83;0.70;;;22.60;39.30;;;;;;5088560;28;20463;-63
2021/11/05 01:51:55;;;;;;;2.05;0.60;;;22.50;39.20;;;;;;5094981;28;20417;-63
2021/11/05 01:54:22;;;;;;;1.73;0.70;;;22.50;39.20;;;;;;5094561;28;20879;-64
2021/11/05 01:56:48;;;;;;;1.80;0.80;;;22.50;39.10;;;;;;5094202;28;20394;-63
2021/11/05 01:59:29;;;;;;;1.45;0.77;;;22.50;39.10;;;;;;5076287;28;20417;-64
2021/11/05 02:01:58;;;;;;;1.63;0.73;;;22.50;39.70;;;;;;5094346;28;20382;-63
2021/11/05 02:04:24;;;;;;;1.52;0.60;;;22.50;39.10;;;;;;5075977;28;20493;-63
2021/11/05 02:06:51;;;;;;;1.73;0.70;;;22.50;39.10;;;;;;5094284;28;20386;-77
2021/11/05 02:09:23;;;;;;;2.42;0.80;;;22.50;39.00;;;;;;5094285;28;20390;-63
2021/11/05 02:11:51;;;;;;;1.88;0.75;;;22.50;39.00;;;;;;5094116;28;20859;-64
2021/11/05 02:14:22;;;;;;;2.13;0.80;;;22.50;39.10;;;;;;5094237;28;20418;-64
2021/11/05 02:16:51;;;;;;;1.60;0.70;;;22.40;39.00;;;;;;5093909;28;20374;-63
2021/11/05 02:19:20;;;;;;;2.30;0.80;;;22.40;38.90;;;;;;5093999;28;20418;-63
2021/11/05 02:21:47;;;;;;;1.50;0.70;;;22.40;38.90;;;;;;5093845;28;20410;-75
2021/11/05 02:24:14;;;;;;;1.55;0.70;;;22.40;39.00;;;;;;5094153;28;20474;-65
2021/11/05 02:26:42;;;;;;;1.73;0.70;;;22.40;39.00;;;;;;5093531;28;20469;-63
2021/11/05 02:29:09;;;;;;;1.38;0.60;;;22.40;39.00;;;;;;5094033;28;20394;-76
2021/11/05 02:31:35;;;;;;;1.60;0.70;;;22.40;39.00;;;;;;5075770;28;20435;-63
2021/11/05 02:34:01;;;;;;;2.10;0.80;;;22.40;39.00;;;;;;5075907;28;20386;-63
2021/11/05 02:36:27;;;;;;;1.95;0.60;;;22.40;39.00;;;;;;5093611;28;20489;-63
2021/11/05 02:38:53;;;;;;;1.20;0.60;;;22.40;39.00;;;;;;5093491;28;20500;-63
2021/11/05 02:41:22;;;;;;;0.90;0.60;;;22.40;39.00;;;;;;5093792;28;20386;-64
2021/11/05 02:43:48;;;;;;;1.42;0.65;;;22.40;39.00;;;;;;5093824;28;20393;-64
2021/11/05 02:46:14;;;;;;;1.23;0.70;;;22.40;38.90;;;;;;5093685;28;20405;-77
2021/11/05 02:48:40;;;;;;;1.58;0.50;;;22.30;38.80;;;;;;5093116;28;20755;-63
2021/11/05 02:51:06;;;;;;;2.63;0.70;;;22.30;38.80;;;;;;5093654;28;20416;-63
2021/11/05 02:53:32;;;;;;;1.27;0.68;;;22.30;38.80;;;;;;5093566;28;20504;-63
2021/11/05 02:55:58;;;;;;;1.95;0.60;;;22.30;38.90;;;;;;5093561;28;20378;-64
2021/11/05 02:58:23;;;;;;;1.10;0.60;;;22.30;38.80;;;;;;5093379;28;20398;-65
2021/11/05 03:00:50;;;;;;;1.83;0.80;;;22.30;38.80;;;;;;5092309;28;20390;-63
2021/11/05 03:03:17;;;;;;;0.75;0.40;;;22.40;38.80;;;;;;5093202;28;20461;-64
2021/11/05 03:05:44;;;;;;;2.28;0.50;;;22.30;38.80;;;;;;5093284;28;20389;-77
2021/11/05 03:08:10;;;;;;;0.88;0.40;;;22.40;38.90;;;;;;5075116;28;20379;-77
2021/11/05 03:10:36;;;;;;;1.50;0.45;;;22.40;38.80;;;;;;5092822;28;20390;-76
2021/11/05 03:13:03;;;;;;;1.77;0.68;;;22.30;38.80;;;;;;5093123;28;20709;-76
2021/11/05 03:15:28;;;;;;;1.33;0.50;;;22.40;38.90;;;;;;5093065;28;20382;-64
2021/11/05 03:17:55;;;;;;;1.17;0.60;;;22.40;38.90;;;;;;5093165;28;20495;-63
2021/11/05 03:20:21;;;;;;;1.17;0.50;;;22.30;38.80;;;;;;5092965;28;20378;-75
2021/11/05 03:22:47;;;;;;;1.17;0.40;;;22.40;38.90;;;;;;5092394;28;20398;-64
2021/11/05 03:25:14;;;;;;;1.67;0.40;;;22.30;38.80;;;;;;5092888;28;20463;-77
2021/11/05 03:27:40;;;;;;;1.40;0.50;;;22.30;38.90;;;;;;5092823;28;20884;-63
2021/11/05 03:30:11;;;;;;;0.88;0.43;;;22.30;38.80;;;;;;5092957;28;20411;-63
2021/11/05 03:32:37;;;;;;;1.23;0.50;;;22.30;38.80;;;;;;5092385;28;20457;-76
2021/11/05 03:35:06;;;;;;;1.58;0.50;;;22.40;38.90;;;;;;5092692;28;20383;-77
2021/11/05 03:37:33;;;;;;;1.08;0.50;;;22.30;38.80;;;;;;5092566;28;20445;-64
2021/11/05 03:39:59;;;;;;;0.93;0.40;;;22.30;38.80;;;;;;5092758;28;20444;-63
2021/11/05 03:42:25;;;;;;;1.80;0.70;;;22.40;38.90;;;;;;5092592;28;20839;-64
2021/11/05 03:44:50;;;;;;;1.37;0.43;;;22.30;38.80;;;;;;5092173;28;20451;-77
2021/11/05 03:47:16;;;;;;;0.80;0.30;;;22.30;38.80;;;;;;5092450;28;20485;-63
2021/11/05 03:49:42;;;;;;;1.47;0.60;;;22.30;38.90;;;;;;5108185;28;20531;-63
2021/11/05 03:52:07;;;;;;;2.40;0.60;;;22.30;38.90;;;;;;5092471;28;20714;-63
2021/11/05 03:54:33;;;;;;;0.90;0.43;;;22.30;38.90;;;;;;5092154;28;20398;-68
2021/11/05 03:56:59;;;;;;;1.33;0.40;;;22.30;38.90;;;;;;5107790;28;20386;-77
2021/11/05 03:59:24;;;;;;;1.00;0.40;;;22.30;38.80;;;;;;5092209;28;20441;-76
2021/11/05 04:01:50;;;;;;;0.90;0.40;;;22.30;38.90;;;;;;5092249;28;20401;-64
2021/11/05 04:04:16;;;;;;;1.40;0.50;;;22.30;38.90;;;;;;5092326;28;20398;-64
2021/11/05 04:06:42;;;;;;;0.70;0.30;;;22.30;38.70;;;;;;5091685;28;20439;-63
2021/11/05 04:09:08;;;;;;;1.83;0.55;;;22.30;38.60;;;;;;5092132;28;20390;-66
2021/11/05 04:11:34;;;;;;;1.92;0.50;;;22.30;38.80;;;;;;5092038;28;20378;-78
2021/11/05 04:13:59;;;;;;;1.65;0.60;;;22.40;39.20;;;;;;5091884;28;20382;-76
2021/11/05 04:16:25;;;;;;;2.47;0.40;;;22.40;39.00;;;;;;5073679;28;20747;-63
2021/11/05 04:18:51;;;;;;;1.70;0.70;;;22.50;39.10;;;;;;5090649;28;20933;-64
2021/11/05 04:21:17;;;;;;;5.47;0.60;;;22.40;39.50;;;;;;5090782;28;20410;-63
2021/11/05 04:23:43;;;;;;;1.45;0.50;;;22.50;41.00;;;;;;5091705;28;20386;-64
2021/11/05 04:26:10;;;;;;;2.23;0.60;;;22.50;40.60;;;;;;5091839;28;20431;-63
2021/11/05 04:28:36;;;;;;;3.50;0.40;;;22.60;40.50;;;;;;5091453;28;20393;-64
2021/11/05 04:31:02;;;;;;;3.40;0.50;;;22.70;40.40;;;;;;5073707;28;20391;-61
2021/11/05 04:33:31;;;;;;;3.57;0.70;;;22.60;40.10;;;;;;5091560;28;20495;-73
2021/11/05 04:35:58;;;;;;;7.28;0.70;;;22.70;40.50;;;;;;5091513;28;20382;-61
2021/11/05 04:38:25;;;;;;;2.47;0.60;;;22.70;40.60;;;;;;5091459;28;20422;-71
2021/11/05 04:40:51;;;;;;;5.00;0.40;;;22.80;40.60;;;;;;5090900;28;20411;-71
2021/11/05 04:43:17;;;;;;;9.37;0.60;;;22.80;40.60;;;;;;5073714;28;20410;-62
2021/11/05 04:45:44;;;;;;;5.25;0.70;;;22.80;40.50;;;;;;5091082;28;20382;-62
2021/11/05 04:48:10;;;;;;;4.45;0.80;;;22.80;40.30;;;;;;5090910;28;20943;-74
2021/11/05 04:50:36;;;;;;;4.88;0.60;;;22.80;40.50;;;;;;5072726;28;20524;-73
2021/11/05 04:53:02;;;;;;;3.33;0.50;;;22.70;39.70;;;;;;5106964;28;20393;-62
2021/11/05 04:55:29;;;;;;;2.75;0.57;;;22.70;39.90;;;;;;5091084;28;20435;-74
2021/11/05 04:57:55;;;;;;;4.35;0.57;;;22.70;39.90;;;;;;5091247;28;20406;-62
2021/11/05 05:00:23;;;;;;;5.13;0.70;;;22.70;40.10;;;;;;5090883;28;20752;-74
2021/11/05 05:02:48;;;;;;;4.35;0.50;;;22.70;40.60;;;;;;5090747;28;20390;-73
2021/11/05 05:05:14;;;;;;;2.63;0.50;;;22.70;40.50;;;;;;5090931;28;20476;-75
2021/11/05 05:07:40;;;;;;;4.38;0.50;;;22.70;40.30;;;;;;5090889;28;20397;-74
2021/11/05 05:10:07;;;;;;;2.13;0.40;;;22.70;40.10;;;;;;5090825;28;20386;-72
2021/11/05 05:12:33;;;;;;;3.13;0.50;;;22.70;39.90;;;;;;5090747;28;20369;-74
2021/11/05 05:14:59;;;;;;;3.83;0.40;;;22.70;39.70;;;;;;5072902;28;20902;-74
2021/11/05 05:17:25;;;;;;;2.60;0.40;;;22.70;39.60;;;;;;5091111;28;20404;-74
2021/11/05 05:19:50;;;;;;;2.50;0.30;;;22.70;39.60;;;;;;5091246;28;20386;-74
2021/11/05 05:22:16;;;;;;;4.25;0.40;;;22.60;39.50;;;;;;5072883;28;20409;-72
2021/11/05 05:24:42;;;;;;;1.10;0.30;;;22.60;39.40;;;;;;5091895;28;20396;-62
2021/11/05 05:27:07;;;;;;;1.45;0.40;;;22.60;39.40;;;;;;5095124;28;20807;-73
2021/11/05 05:29:33;;;;;;;2.23;0.53;;;22.60;39.40;;;;;;5095215;28;20443;-74
2021/11/05 05:31:59;;;;;;;1.60;0.40;;;22.60;39.30;;;;;;5095230;28;20402;-74
2021/11/05 05:34:24;;;;;;;1.30;0.40;;;22.60;39.20;;;;;;5094942;28;20394;-74
2021/11/05 05:36:50;;;;;;;2.53;0.43;;;22.60;39.10;;;;;;5094518;28;20390;-70
2021/11/05 05:39:15;;;;;;;2.97;0.60;;;22.60;39.20;;;;;;5094845;28;20476;-63
2021/11/05 05:41:41;;;;;;;1.77;0.40;;;22.60;39.20;;;;;;5094712;28;20416;-62
2021/11/05 05:44:07;;;;;;;2.58;0.40;;;22.60;39.40;;;;;;5094726;28;20899;-63
2021/11/05 05:46:33;;;;;;;2.07;0.47;;;22.60;39.20;;;;;;5094322;28;20905;-62
2021/11/05 05:48:59;;;;;;;0.75;0.30;;;22.60;39.10;;;;;;5094132;28;20886;-62
2021/11/05 05:51:24;;;;;;;1.30;0.40;;;22.60;38.80;;;;;;5094368;28;20382;-63
2021/11/05 05:53:50;;;;;;;0.70;0.30;;;22.60;38.80;;;;;;5094604;28;20414;-66
2021/11/05 05:56:15;;;;;;;1.77;0.50;;;22.50;38.80;;;;;;5094129;28;20443;-62
2021/11/05 05:58:41;;;;;;;2.00;0.50;;;22.50;38.70;;;;;;5093436;28;20959;-62
2021/11/05 06:01:07;;;;;;;4.30;0.60;;;22.50;39.10;;;;;;5094474;28;20386;-66
2021/11/05 06:03:32;;;;;;;4.03;0.50;;;22.50;39.30;;;;;;5110082;28;20387;-62
2021/11/05 06:05:58;;;;;;;4.30;0.60;;;22.50;39.40;;;;;;5094380;28;20386;-62
2021/11/05 06:08:23;;;;;;;1.10;0.30;;;22.50;39.60;;;;;;5094384;28;20469;-63
2021/11/05 06:10:50;;;;;;;3.30;0.40;;;22.50;39.60;;;;;;5093893;28;20489;-63
2021/11/05 06:13:15;;;;;;;1.88;0.40;;;22.50;39.60;;;;;;5094372;28;20811;-64
2021/11/05 06:15:41;;;;;;;2.67;0.50;;;22.50;39.60;;;;;;5094065;28;20461;-62
2021/11/05 06:18:08;;;;;;;2.05;0.40;;;22.50;39.60;;;;;;5094202;28;20958;-75
2021/11/05 06:20:34;;;;;;;3.58;0.50;;;22.40;39.40;;;;;;5093861;28;20386;-62
2021/11/05 06:22:59;;;;;;;1.75;0.35;;;22.40;39.40;;;;;;5093993;28;20386;-62
2021/11/05 06:25:25;;;;;;;1.20;0.30;;;22.40;39.40;;;;;;5075920;28;20390;-62
2021/11/05 06:27:51;;;;;;;1.73;0.70;;;22.40;39.40;;;;;;5094052;28;20413;-62
2021/11/05 06:30:16;;;;;;;1.47;0.40;;;22.40;39.30;;;;;;5094092;28;20447;-62
2021/11/05 06:32:42;;;;;;;2.03;0.30;;;22.40;39.40;;;;;;5093394;28;20926;-62
2021/11/05 06:35:10;;;;;;;0.90;0.60;;;22.40;39.30;;;;;;5093700;28;20390;-62
2021/11/05 06:37:39;;;;;;;2.03;0.50;;;22.40;39.30;;;;;;5092678;28;20488;-63
2021/11/05 06:40:07;;;;;;;1.90;0.50;;;22.40;39.30;;;;;;5093857;28;20425;-65
2021/11/05 06:42:33;;;;;;;1.35;0.38;;;22.40;39.30;;;;;;5093704;28;20382;-62
2021/11/05 06:44:59;;;;;;;1.10;0.40;;;22.40;39.30;;;;;;5093075;28;20743;-62
2021/11/05 06:47:25;;;;;;;1.00;0.50;;;22.40;39.10;;;;;;5075341;28;20394;-62
2021/11/05 06:49:51;;;;;;;1.63;0.40;;;22.40;39.10;;;;;;5093587;28;20389;-62
2021/11/05 06:52:16;;;;;;;0.83;0.40;;;22.30;39.00;;;;;;5093628;28;20382;-62
2021/11/05 06:54:42;;;;;;;1.27;0.40;;;22.30;39.10;;;;;;5093279;28;20448;-73
2021/11/05 06:57:08;;;;;;;1.20;0.30;;;22.30;39.10;;;;;;5093472;28;20378;-62
2021/11/05 06:59:35;;;;;;;1.90;0.45;;;22.30;39.10;;;;;;5093282;28;20487;-67
2021/11/05 07:02:02;;;;;;;1.58;0.40;;;22.30;39.10;;;;;;5093474;28;20381;-62
2021/11/05 07:04:28;;;;;;;2.00;0.40;;;22.30;39.10;;;;;;5093293;28;20389;-74
2021/11/05 07:06:58;;;;;;;1.23;0.50;;;22.30;39.10;;;;;;5092785;28;20394;-62
2021/11/05 07:09:24;;;;;;;0.50;0.30;;;22.30;39.00;;;;;;5093169;28;20860;-74
2021/11/05 07:11:50;;;;;;;1.60;0.50;;;22.30;39.40;;;;;;5074967;28;20386;-62
2021/11/05 07:14:16;;;;;;;1.27;0.40;;;22.30;38.90;;;;;;5093069;28;20413;-63
2021/11/05 07:16:43;;;;;;;0.70;0.40;;;22.30;38.90;;;;;;5092783;28;20383;-62
2021/11/05 07:19:09;;;;;;;0.80;0.40;;;22.30;38.90;;;;;;5092976;28;20421;-62
2021/11/05 07:21:35;;;;;;;0.80;0.50;;;22.20;38.80;;;;;;5092789;28;20394;-62
2021/11/05 07:24:03;;;;;;;0.60;0.30;;;22.30;38.80;;;;;;5092959;28;20392;-62
2021/11/05 07:26:41;;;;;;;1.17;0.50;;;22.30;38.80;;;;;;5092785;28;20457;-62
2021/11/05 07:29:09;;;;;;;1.67;0.40;;;22.20;38.80;;;;;;5074807;28;20749;-73
2021/11/05 07:31:35;;;;;;;0.98;0.50;;;22.20;38.80;;;;;;5092685;28;20382;-62
2021/11/05 07:34:01;;;;;;;0.90;0.50;;;22.20;38.90;;;;;;5092725;28;20447;-62
2021/11/05 07:36:27;;;;;;;0.50;0.30;;;22.20;38.80;;;;;;5092669;28;20377;-74
2021/11/05 07:38:53;;;;;;;1.02;0.40;;;22.20;38.90;;;;;;5074000;28;20456;-74
2021/11/05 07:41:19;;;;;;;0.73;0.47;;;22.20;38.90;;;;;;5092547;28;20378;-62
2021/11/05 07:43:48;;;;;;;0.70;0.40;;;22.20;38.90;;;;;;5092624;28;20549;-64
2021/11/05 07:46:14;;;;;;;1.40;0.40;;;22.20;38.90;;;;;;5092502;28;20384;-62
2021/11/05 07:48:40;;;;;;;1.05;0.50;;;22.10;38.80;;;;;;5091816;28;20397;-62
2021/11/05 07:51:06;;;;;;;0.60;0.40;;;22.10;38.80;;;;;;5092153;28;20389;-62
2021/11/05 07:53:32;;;;;;;1.90;0.50;;;22.10;38.80;;;;;;5092324;28;20386;-62
2021/11/05 07:55:57;;;;;;;1.15;0.40;;;22.10;38.80;;;;;;5092327;28;20397;-62
2021/11/05 07:58:23;;;;;;;0.80;0.50;;;22.10;38.80;;;;;;5092211;28;20410;-62
2021/11/05 08:00:49;;;;;;;0.90;0.43;;;22.10;38.80;;;;;;5091644;28;20748;-62
2021/11/05 08:03:17;;;;;;;1.43;0.40;;;22.20;38.50;;;;;;5092605;28;20393;-73
2021/11/05 08:05:43;;;;;;;1.20;0.57;;;22.10;38.60;;;;;;5073886;28;20476;-63
2021/11/05 08:08:10;;;;;;;1.30;0.50;;;22.20;38.80;;;;;;5073894;28;20760;-62
2021/11/05 08:10:36;;;;;;;1.88;0.55;;;22.10;39.10;;;;;;5091760;28;20382;-62
2021/11/05 08:13:02;;;;;;;1.80;0.50;;;22.20;39.00;;;;;;5091612;28;20720;-62
2021/11/05 08:15:28;;;;;;;3.38;0.70;;;22.20;39.10;;;;;;5091911;28;20382;-62
2021/11/05 08:17:53;;;;;;;1.25;0.50;;;22.20;39.00;;;;;;5091949;28;20424;-68
2021/11/05 08:20:19;;;;;;;2.20;0.60;;;22.20;39.10;;;;;;5073788;28;20459;-66
2021/11/05 08:22:46;;;;;;;1.30;0.50;;;22.30;39.20;;;;;;5091394;28;21008;-74
2021/11/05 08:25:14;;;;;;;3.33;0.80;;;22.30;39.10;;;;;;5092002;28;20878;-62
2021/11/05 08:27:40;;;;;;;3.53;0.70;;;22.30;39.90;;;;;;5091650;28;20394;-62
2021/11/05 08:30:12;;;;;;;8.38;1.20;;;22.30;41.50;;;;;;5091724;28;20378;-62
2021/11/05 08:32:38;;;;;;;4.35;0.77;;;22.40;40.50;;;;;;5073327;28;20390;-62
2021/11/05 08:35:06;;;;;;;5.07;0.70;;;22.40;40.80;;;;;;5091262;28;20461;-75
2021/11/05 08:37:32;;;;;;;3.05;0.55;;;22.40;40.90;;;;;;5091504;28;20390;-62
2021/11/05 08:39:58;;;;;;;4.22;0.60;;;22.40;39.90;;;;;;5091595;28;20398;-66
2021/11/05 08:42:24;;;;;;;9.17;0.80;;;22.40;41.60;;;;;;5091353;28;20462;-72
2021/11/05 08:44:49;;;;;;;9.65;0.90;;;22.40;41.60;;;;;;5091002;28;20401;-62
2021/11/05 08:47:15;;;;;;;9.10;0.80;;;22.50;41.00;;;;;;5091545;28;20738;-73
2021/11/05 08:49:41;;;;;;;8.53;1.00;;;22.50;40.70;;;;;;5091361;28;20477;-65
2021/11/05 08:52:07;;;;;;;5.45;1.10;;;22.60;40.60;;;;;;5091458;28;20384;-74
2021/11/05 08:54:33;;;;;;;4.05;1.20;;;22.70;40.40;;;;;;5091376;28;20390;-62
2021/11/05 08:56:59;;;;;;;5.00;1.20;;;22.80;40.80;;;;;;5090963;28;20461;-62
2021/11/05 08:59:25;;;;;;;3.72;0.90;;;22.80;40.50;;;;;;5092151;28;20899;-62
2021/11/05 09:01:53;;;;;;;10.82;2.88;;;22.90;41.20;;;;;;5078871;28;20388;-61
2021/11/05 09:04:18;;;;;;;4.40;1.48;;;22.90;41.30;;;;;;5075100;28;20394;-73
2021/11/05 09:06:45;;;;;;;3.83;1.30;;;23.00;41.20;;;;;;5075137;28;20379;-62
2021/11/05 09:09:11;;;;;;;3.50;1.27;;;23.10;40.40;;;;;;5074968;28;20392;-62
2021/11/05 09:11:37;;;;;;;2.70;1.00;;;23.10;39.90;;;;;;5075001;28;20466;-75
2021/11/05 09:14:03;;;;;;;3.13;1.00;;;23.20;40.20;;;;;;5075189;28;20453;-62
2021/11/05 09:16:29;;;;;;;2.95;0.95;;;23.20;39.90;;;;;;5075125;28;20383;-75
2021/11/05 09:18:57;;;;;;;3.10;1.00;;;23.20;39.90;;;;;;5056872;28;20457;-76
2021/11/05 09:21:23;;;;;;;1.75;0.80;;;23.20;39.60;;;;;;5074813;28;20400;-75
2021/11/05 09:23:48;;;;;;;2.67;1.10;;;23.20;39.60;;;;;;5074947;28;20399;-62
2021/11/05 09:26:15;;;;;;;2.10;0.83;;;23.20;39.50;;;;;;5073922;28;20741;-62
2021/11/05 09:28:41;;;;;;;2.17;0.95;;;23.30;39.40;;;;;;5056483;28;20885;-62
2021/11/05 09:31:07;;;;;;;2.40;0.80;;;23.30;39.40;;;;;;5073762;28;20435;-62
2021/11/05 09:33:32;;;;;;;3.28;0.98;;;23.30;39.40;;;;;;5074655;28;20383;-62
2021/11/05 09:35:58;;;;;;;2.67;0.90;;;23.30;39.40;;;;;;5074807;28;20394;-75
2021/11/05 09:38:24;;;;;;;1.50;0.80;;;23.40;39.40;;;;;;5074483;28;20419;-76
2021/11/05 09:40:51;;;;;;;2.00;0.80;;;23.40;39.40;;;;;;5074190;28;20383;-68
2021/11/05 09:43:18;;;;;;;2.60;1.00;;;23.40;39.60;;;;;;5055041;28;20401;-67
2021/11/05 09:45:44;;;;;;;3.13;0.80;;;23.30;39.70;;;;;;5054593;28;20393;-62
2021/11/05 09:48:09;;;;;;;1.67;0.70;;;23.40;39.80;;;;;;5054084;28;20390;-62
2021/11/05 09:50:37;;;;;;;1.83;0.80;;;23.40;39.70;;;;;;5052584;28;20420;-76
2021/11/05 09:53:03;;;;;;;4.10;1.00;;;23.40;39.80;;;;;;5052764;28;20795;-62
2021/11/05 09:55:31;;;;;;;2.22;0.80;;;23.40;39.50;;;;;;5054283;28;20389;-62
2021/11/05 09:57:56;;;;;;;3.13;0.80;;;23.50;39.80;;;;;;5054143;28;20516;-64
2021/11/05 10:00:25;;;;;;;2.47;0.80;;;23.50;40.00;;;;;;5054154;28;20918;-77
2021/11/05 10:02:51;;;;;;;4.40;0.77;;;23.50;39.60;;;;;;5054182;28;20472;-79
2021/11/05 10:05:18;;;;;;;3.55;1.00;;;23.50;39.80;;;;;;5054236;28;20401;-71
2021/11/05 10:07:51;;;;;;;2.45;0.85;;;23.60;39.70;;;;;;5054312;28;20895;-79
2021/11/05 10:10:40;;;;;;;3.65;0.80;;;23.60;40.70;;;;;;5053832;28;20401;-65
2021/11/05 10:13:14;;;;;;;2.80;0.70;;;23.60;40.20;;;;;;5053683;28;20425;-62
2021/11/05 10:15:45;;;;;;;2.78;0.80;;;23.60;40.00;;;;;;5053995;28;20385;-78
2021/11/05 10:18:15;;;;;;;2.58;0.65;;;23.60;40.00;;;;;;5054061;28;20402;-79
2021/11/05 10:20:44;;;;;;;5.03;0.90;;;23.60;40.10;;;;;;5053917;28;20389;-71
2021/11/05 10:23:10;;;;;;;4.15;0.90;;;23.60;40.10;;;;;;5053303;28;20385;-75
2021/11/05 10:25:39;;;;;;;3.55;0.90;;;23.70;40.10;;;;;;5053919;28;20754;-61
2021/11/05 10:28:11;;;;;;;4.70;1.30;;;23.70;40.00;;;;;;5053985;28;20382;-78
2021/11/05 10:30:39;;;;;;;3.38;1.20;;;23.70;40.20;;;;;;5053678;28;20390;-62
2021/11/05 10:33:05;;;;;;;2.87;0.90;;;23.70;39.90;;;;;;5053358;28;20385;-70
2021/11/05 10:35:36;;;;;;;2.70;1.05;;;23.70;39.90;;;;;;5053691;28;20378;-76
2021/11/05 10:38:06;;;;;;;2.85;0.80;;;23.80;40.10;;;;;;5053878;28;20413;-79
2021/11/05 10:40:44;;;;;;;3.72;1.00;;;23.80;39.90;;;;;;5053884;28;20436;-77
2021/11/05 10:43:11;;;;;;;4.55;1.15;;;23.90;40.20;;;;;;5036175;28;20470;-61
2021/11/05 10:45:38;;;;;;;2.15;0.80;;;23.90;39.70;;;;;;5053348;28;21090;-76
2021/11/05 10:48:12;;;;;;;2.97;0.90;;;23.90;39.60;;;;;;5053765;28;20400;-79
2021/11/05 10:50:50;;;;;;;5.35;0.80;;;23.90;39.10;;;;;;5053228;28;20389;-62
2021/11/05 10:53:21;;;;;;;3.20;0.90;;;23.90;40.00;;;;;;5052203;28;20752;-67
2021/11/05 10:56:00;;;;;;;3.85;0.90;;;23.90;39.50;;;;;;5070517;28;20495;-78
2021/11/05 10:58:30;;;;;;;3.30;0.90;;;23.90;39.30;;;;;;5076043;28;20458;-63
2021/11/05 11:00:57;;;;;;;3.25;0.90;;;23.90;39.40;;;;;;5081506;28;20388;-70
2021/11/05 11:03:26;;;;;;;4.47;1.05;;;23.90;38.90;;;;;;5080775;28;20800;-78
2021/11/05 11:05:54;;;;;;;3.28;1.08;;;24.00;38.70;;;;;;5082262;28;20410;-77
2021/11/05 11:08:26;;;;;;;2.30;0.70;;;24.00;38.30;;;;;;5086222;28;20388;-74
2021/11/05 11:11:00;;;;;;;2.50;1.00;;;24.00;38.50;;;;;;5080648;28;20407;-77
2021/11/05 11:13:28;;;;;;;2.50;0.90;;;24.00;38.50;;;;;;5078267;28;20386;-64
2021/11/05 11:15:54;;;;;;;4.05;1.10;;;24.00;39.60;;;;;;5063911;28;20428;-77
2021/11/05 11:18:22;;;;;;;3.72;0.90;;;24.00;38.90;;;;;;5080254;28;20400;-75
2021/11/05 11:20:50;;;;;;;2.90;1.23;;;24.10;38.80;;;;;;5080112;28;20408;-62
2021/11/05 11:23:16;;;;;;;2.45;1.10;;;24.10;38.80;;;;;;5080040;28;20397;-62
2021/11/05 11:25:42;;;;;;;3.13;1.20;;;24.10;38.80;;;;;;5082743;28;20478;-64
2021/11/05 11:28:09;;;;;;;2.80;1.20;;;24.10;38.80;;;;;;5079797;28;20413;-75
2021/11/05 11:30:35;;;;;;;3.67;1.20;;;24.10;38.80;;;;;;5081946;28;20380;-61
2021/11/05 11:33:01;;;;;;;4.40;1.30;;;24.10;38.70;;;;;;5080057;28;20387;-76
2021/11/05 11:35:27;;;;;;;3.72;1.42;;;24.20;38.70;;;;;;5082303;28;20382;-62
2021/11/05 11:37:54;;;;;;;6.80;2.20;;;24.20;39.30;;;;;;5081541;28;20754;-72
2021/11/05 11:40:19;;;;;;;8.32;2.58;;;24.10;39.30;;;;;;5080077;28;20394;-75
2021/11/05 11:42:46;;;;;;;9.07;3.33;;;24.10;39.50;;;;;;5074200;28;20378;-79
2021/11/05 11:45:14;;;;;;;13.60;3.58;;;24.20;40.10;;;;;;5080729;28;20394;-72
2021/11/05 11:47:47;;;;;;;19.50;4.35;;;24.20;40.30;;;;;;5075274;28;20391;-62
2021/11/05 11:50:34;;;;;;;25.45;5.80;;;24.20;40.70;;;;;;5072024;28;20396;-61
2021/11/05 11:53:09;;;;;;;15.38;4.53;;;24.20;41.20;;;;;;5071675;28;20816;-62
2021/11/05 11:55:40;;;;;;;15.65;4.78;;;24.40;42.00;;;;;;5072032;28;20403;-62
2021/11/05 11:58:14;;;;;;;13.48;3.97;;;24.60;41.10;;;;;;5071889;28;20399;-62
2021/11/05 12:00:40;;;;;;;22.25;4.18;;;24.60;41.20;;;;;;5071923;28;20391;-62
2021/11/05 12:03:12;;;;;;;13.38;4.15;;;24.70;40.90;;;;;;5071334;28;20466;-61
2021/11/05 12:05:46;;;;;;;11.20;3.83;;;24.60;41.60;;;;;;5071719;28;20402;-62
2021/11/05 12:08:15;;;;;;;13.35;3.50;;;24.60;42.20;;;;;;5071797;28;20414;-62
2021/11/05 12:10:45;;;;;;;10.70;3.57;;;24.60;43.50;;;;;;5071771;28;20423;-62
2021/11/05 12:13:32;;;;;;;12.47;3.60;;;24.60;43.00;;;;;;5071225;28;20387;-62
2021/11/05 12:16:13;;;;;;;13.95;3.63;;;24.50;42.70;;;;;;5074012;28;20397;-76
2021/11/05 12:18:58;;;;;;;15.77;3.40;;;24.50;44.30;;;;;;5080881;28;20758;-71
2021/11/05 12:21:28;;;;;;;14.40;3.97;;;24.40;44.50;;;;;;5078718;28;20406;-62
2021/11/05 12:24:15;;;;;;;14.35;3.60;;;24.40;44.80;;;;;;5082013;28;20386;-78
2021/11/05 12:26:41;;;;;;;11.38;3.10;;;24.40;45.30;;;;;;5079270;28;20456;-78
2021/11/05 12:29:07;;;;;;;10.45;3.03;;;24.40;44.60;;;;;;5079537;28;20411;-68
2021/11/05 12:31:36;;;;;;;8.73;2.83;;;24.30;43.90;;;;;;5081992;28;20382;-62
2021/11/05 12:34:39;;;;;;;9.60;2.65;;;24.30;43.30;;;;;;5060996;28;20391;-77
2021/11/05 12:37:05;;;;;;;12.23;2.80;;;24.30;42.90;;;;;;5030147;28;20400;-64
2021/11/05 12:39:40;;;;;;;8.45;2.42;;;24.20;42.80;;;;;;5080743;28;20428;-63
2021/11/05 12:42:05;;;;;;;7.93;2.63;;;24.20;42.30;;;;;;5075682;28;21069;-63
2021/11/05 12:44:55;;;;;;;8.43;2.30;;;24.20;42.40;;;;;;5080079;28;20394;-65
2021/11/05 12:47:54;;;;;;;8.60;2.70;;;24.20;42.60;;;;;;5080632;28;20425;-64